Relevés horaires Stabio (Suisse)


Relevés horaires à Stabio - Vendredi 22 Nov. 2002
Heure UTC1 Température [°C] Vent [km/h] Hum. [%] Pres.4 [hPa] Visi. [Km] Nébu. [octa] Préc.5 [mm] Cond.
2m. Res. Ros. Dir.2 Vit. Moy. Raf.3
23:00 2.0 2.0 0.7 SO 3.7 -- -- 91 1009.2 -- -- -- --
22:00 3.3 3.3 1.9 SSO 1.9 -- -- 91 1008.4 -- -- -- --
21:00 3.0 3.0 1.8 SO 3.7 -- -- 92 1007.8 -- -- -- --
20:00 3.7 3.7 2.5 SSO 1.9 -- -- 92 1007.1 -- -- -- --
19:00 4.6 4.6 3.3 NNO 0.0 -- -- 91 1006.5 -- -- -- --
18:00 5.8 5.8 4.4 OSO 3.7 -- -- 91 1005.5 -- -- 0/0h
--
17:00 6.8 5.4 5.2 SO 7.4 -- -- 90 1004.7 -- -- -- --
16:00 8.8 7.7 6.6 SO 7.4 -- -- 86 1003.5 -- -- -- --
15:00 9.3 8.3 6.4 OSO 7.4 -- -- 82 1003 -- -- -- --
14:00 10.1 10.1 6.9 SO 3.7 -- -- 80 1002.1 -- -- -- --
13:00 8.9 7.1 5.8 O 11.1 -- -- 81 1001.9 -- -- -- --
12:00 9.0 8.4 6.8 ENE 5.6 -- -- 86 1001.9 -- -- -- --
11:00 8.6 8.6 6.1 OSO 3.7 -- -- 84 1002.3 -- -- -- --
10:00 8.1 6.9 5.5 ENE 7.4 -- -- 84 1001.9 -- -- -- --
09:00 8.4 8.4 6.5 NNO 0.0 -- -- 88 1001.3 -- -- -- --
08:00 7.7 7.7 6.0 S 1.9 -- -- 89 1001 -- -- -- --
07:00 7.6 7.6 5.9 S 3.7 -- -- 89 1000.5 -- -- -- --
06:00 7.7 7.7 6.2 SSO 3.7 -- -- 90 1000(-0.5/3h) -- -- 47/12h
--
05:00 8.0 8.0 6.2 S 1.9 -- -- 88 999.8 -- -- -- --
04:00 8.6 8 6.9 O 5.6 -- -- 89 1000 -- -- -- --
03:00 9.8 9.8 8.1 E 3.7 -- 42.6 89 1000.1(-1.3/3h) -- -- -- --
02:00 9.8 9.4 7.6 SO 5.6 -- -- 86 1000.7 -- -- -- --
01:00 10.6 10.6 8.6 OSO 3.7 -- -- 87 1001.1 -- -- -- --
00:00 10.7 10.4 8.8 E 5.6 -- 42.6 88 1001.4(-2.1/3h) -- -- 24/6h
--

1 Coordinated Universal Time. Actuellement il est 08:00 locale et 06:00 UTC.

2 Le vent souffle depuis la direction indiquée vers la direction oposée.

3 Les rafales max. sont disponible 40 min après l'heure du relevé.

4 Pour les stations d'altitude (plus de 600m) le géopotentiel du niveau le plus proche de la pression obligatoire est indiqué.

5 Les stations disposant d'un diffuseur peuvent indiquer "trace". Cela signifie que des précipitations ont touchés le sol mais que la quantité est inférieure à 0.1 mm.

Copyright

Les données affichées sur cette page sont la propriété exclusive de Météo Suisse.

Récapitulatif de la journée
Température [°C] Vent [km/h] Ensoleillement4 [h] Precipitations totale5 [mm] Pression [Hpa]
Min1 Max.2 Moy.3 Max. Min Max.
7.7 -- 0 42.6 0 h 0 min 0 999.8 1009.2

1 Température minimale relevée entre 18:00 UTC la veille et 18:00 UTC le jour donné.

2 Température maximale relevée entre 06:00 UTC le jour donné et 06:00 UTC le lendemain.

3 Vent moyen de la journée basé sur les relevés horaires.

4 Ensoleillement en heures relevé entre 06:00 UTC la veille et 06:00 UTC le jour donné.

5 Précipitations totales tombées entre 06:00 UTC la jour donné et 06:00 UTC le lendemain.

Graphiques horaires